sensor_id;sensor_type;location;lat;lon;timestamp;temperature;humidity
770;DHT22;368;48.698;9.116;2024-01-30T00:00:10;3.00;99.90
770;DHT22;368;48.698;9.116;2024-01-30T00:02:38;2.80;99.90
770;DHT22;368;48.698;9.116;2024-01-30T00:05:05;3.00;99.90
770;DHT22;368;48.698;9.116;2024-01-30T00:07:32;3.40;99.90
770;DHT22;368;48.698;9.116;2024-01-30T00:09:59;3.50;99.90
770;DHT22;368;48.698;9.116;2024-01-30T00:12:26;3.40;99.90
770;DHT22;368;48.698;9.116;2024-01-30T00:14:53;3.50;99.90
770;DHT22;368;48.698;9.116;2024-01-30T00:17:19;3.60;99.90
770;DHT22;368;48.698;9.116;2024-01-30T00:19:48;3.50;99.90
770;DHT22;368;48.698;9.116;2024-01-30T00:22:15;3.10;99.90
770;DHT22;368;48.698;9.116;2024-01-30T00:24:42;3.50;99.90
770;DHT22;368;48.698;9.116;2024-01-30T00:27:08;3.40;99.90
770;DHT22;368;48.698;9.116;2024-01-30T00:29:35;3.70;99.90
770;DHT22;368;48.698;9.116;2024-01-30T00:32:02;3.60;99.90
770;DHT22;368;48.698;9.116;2024-01-30T00:34:29;3.60;99.90
770;DHT22;368;48.698;9.116;2024-01-30T00:36:57;3.60;99.90
770;DHT22;368;48.698;9.116;2024-01-30T00:39:24;3.60;99.90
770;DHT22;368;48.698;9.116;2024-01-30T00:41:50;3.40;99.90
770;DHT22;368;48.698;9.116;2024-01-30T00:44:17;3.40;99.90
770;DHT22;368;48.698;9.116;2024-01-30T00:46:44;3.70;99.90
770;DHT22;368;48.698;9.116;2024-01-30T00:49:10;3.70;99.90
770;DHT22;368;48.698;9.116;2024-01-30T00:51:37;3.60;99.90
770;DHT22;368;48.698;9.116;2024-01-30T00:54:05;3.60;99.90
770;DHT22;368;48.698;9.116;2024-01-30T00:56:33;3.50;99.90
770;DHT22;368;48.698;9.116;2024-01-30T00:59:00;3.20;99.90
770;DHT22;368;48.698;9.116;2024-01-30T01:01:27;3.50;99.90
770;DHT22;368;48.698;9.116;2024-01-30T01:03:54;3.80;99.90
770;DHT22;368;48.698;9.116;2024-01-30T01:06:21;3.80;99.90
770;DHT22;368;48.698;9.116;2024-01-30T01:08:47;3.70;99.90
770;DHT22;368;48.698;9.116;2024-01-30T01:11:15;3.70;99.90
770;DHT22;368;48.698;9.116;2024-01-30T01:13:42;3.70;99.90
770;DHT22;368;48.698;9.116;2024-01-30T01:16:09;3.40;99.90
770;DHT22;368;48.698;9.116;2024-01-30T01:18:36;3.50;99.90
770;DHT22;368;48.698;9.116;2024-01-30T01:21:03;3.50;99.90
770;DHT22;368;48.698;9.116;2024-01-30T01:23:30;3.40;99.90
770;DHT22;368;48.698;9.116;2024-01-30T01:25:57;3.30;99.90
770;DHT22;368;48.698;9.116;2024-01-30T01:28:26;3.10;99.90
770;DHT22;368;48.698;9.116;2024-01-30T01:30:53;3.40;99.90
770;DHT22;368;48.698;9.116;2024-01-30T01:33:24;3.20;99.90
770;DHT22;368;48.698;9.116;2024-01-30T01:35:51;3.10;99.90
770;DHT22;368;48.698;9.116;2024-01-30T01:38:18;3.00;99.90
770;DHT22;368;48.698;9.116;2024-01-30T01:40:44;3.00;99.90
770;DHT22;368;48.698;9.116;2024-01-30T01:43:11;3.00;99.90
770;DHT22;368;48.698;9.116;2024-01-30T01:45:39;2.80;99.90
770;DHT22;368;48.698;9.116;2024-01-30T01:48:06;2.80;99.90
770;DHT22;368;48.698;9.116;2024-01-30T01:50:33;2.80;99.90
770;DHT22;368;48.698;9.116;2024-01-30T01:53:00;2.60;99.90
770;DHT22;368;48.698;9.116;2024-01-30T01:55:29;2.50;99.90
770;DHT22;368;48.698;9.116;2024-01-30T01:57:57;2.20;99.90
770;DHT22;368;48.698;9.116;2024-01-30T02:00:24;2.40;99.90
770;DHT22;368;48.698;9.116;2024-01-30T02:02:53;2.10;99.90
770;DHT22;368;48.698;9.116;2024-01-30T02:05:21;2.20;99.90
770;DHT22;368;48.698;9.116;2024-01-30T02:07:48;2.20;99.90
770;DHT22;368;48.698;9.116;2024-01-30T02:10:15;2.30;99.90
770;DHT22;368;48.698;9.116;2024-01-30T02:12:42;2.30;99.90
770;DHT22;368;48.698;9.116;2024-01-30T02:15:08;2.10;99.90
770;DHT22;368;48.698;9.116;2024-01-30T02:17:39;2.20;99.90
770;DHT22;368;48.698;9.116;2024-01-30T02:20:09;2.00;99.90
770;DHT22;368;48.698;9.116;2024-01-30T02:22:37;2.20;99.90
770;DHT22;368;48.698;9.116;2024-01-30T02:25:05;2.40;99.90
770;DHT22;368;48.698;9.116;2024-01-30T02:27:32;2.30;99.90
770;DHT22;368;48.698;9.116;2024-01-30T02:29:59;2.00;99.90
770;DHT22;368;48.698;9.116;2024-01-30T02:32:26;2.30;99.90
770;DHT22;368;48.698;9.116;2024-01-30T02:34:52;1.90;99.90
770;DHT22;368;48.698;9.116;2024-01-30T02:37:19;1.80;99.90
770;DHT22;368;48.698;9.116;2024-01-30T02:39:47;1.70;99.90
770;DHT22;368;48.698;9.116;2024-01-30T02:42:14;1.60;99.90
770;DHT22;368;48.698;9.116;2024-01-30T02:44:41;1.70;99.90
770;DHT22;368;48.698;9.116;2024-01-30T02:47:07;1.70;99.90
770;DHT22;368;48.698;9.116;2024-01-30T02:49:34;1.60;99.90
770;DHT22;368;48.698;9.116;2024-01-30T02:52:01;1.50;99.90
770;DHT22;368;48.698;9.116;2024-01-30T02:54:28;1.80;99.90
770;DHT22;368;48.698;9.116;2024-01-30T02:56:57;1.70;99.90
770;DHT22;368;48.698;9.116;2024-01-30T02:59:24;1.70;99.90
770;DHT22;368;48.698;9.116;2024-01-30T03:01:50;1.40;99.90
770;DHT22;368;48.698;9.116;2024-01-30T03:04:17;1.70;99.90
770;DHT22;368;48.698;9.116;2024-01-30T03:06:47;1.70;99.90
770;DHT22;368;48.698;9.116;2024-01-30T03:09:16;1.30;99.90
770;DHT22;368;48.698;9.116;2024-01-30T03:11:43;1.40;99.90
770;DHT22;368;48.698;9.116;2024-01-30T03:14:11;1.30;99.90
770;DHT22;368;48.698;9.116;2024-01-30T03:16:38;1.20;99.90
770;DHT22;368;48.698;9.116;2024-01-30T03:19:06;1.30;99.90
770;DHT22;368;48.698;9.116;2024-01-30T03:21:34;1.00;99.90
770;DHT22;368;48.698;9.116;2024-01-30T03:24:01;1.00;99.90
770;DHT22;368;48.698;9.116;2024-01-30T03:26:28;1.10;99.90
770;DHT22;368;48.698;9.116;2024-01-30T03:28:55;1.00;99.90
770;DHT22;368;48.698;9.116;2024-01-30T03:31:23;0.90;99.90
770;DHT22;368;48.698;9.116;2024-01-30T03:33:50;1.00;99.90
770;DHT22;368;48.698;9.116;2024-01-30T03:36:16;1.00;99.90
770;DHT22;368;48.698;9.116;2024-01-30T03:38:43;0.70;99.90
770;DHT22;368;48.698;9.116;2024-01-30T03:41:10;0.80;99.90
770;DHT22;368;48.698;9.116;2024-01-30T03:43:37;0.60;99.90
770;DHT22;368;48.698;9.116;2024-01-30T03:46:04;0.70;99.90
770;DHT22;368;48.698;9.116;2024-01-30T03:48:32;0.60;99.90
770;DHT22;368;48.698;9.116;2024-01-30T03:50:59;0.60;99.90
770;DHT22;368;48.698;9.116;2024-01-30T03:53:26;0.70;99.90
770;DHT22;368;48.698;9.116;2024-01-30T03:55:52;1.10;99.90
770;DHT22;368;48.698;9.116;2024-01-30T03:58:19;0.80;99.90
770;DHT22;368;48.698;9.116;2024-01-30T04:00:46;0.80;99.90
770;DHT22;368;48.698;9.116;2024-01-30T04:03:14;0.90;99.90
770;DHT22;368;48.698;9.116;2024-01-30T04:05:42;0.80;99.90
770;DHT22;368;48.698;9.116;2024-01-30T04:08:09;0.80;99.90
770;DHT22;368;48.698;9.116;2024-01-30T04:10:36;0.60;99.90
770;DHT22;368;48.698;9.116;2024-01-30T04:13:03;0.60;99.90
770;DHT22;368;48.698;9.116;2024-01-30T04:15:30;0.70;99.90
770;DHT22;368;48.698;9.116;2024-01-30T04:17:57;0.70;99.90
770;DHT22;368;48.698;9.116;2024-01-30T04:20:24;0.60;99.90
770;DHT22;368;48.698;9.116;2024-01-30T04:22:53;0.30;99.90
770;DHT22;368;48.698;9.116;2024-01-30T04:25:19;0.50;99.90
770;DHT22;368;48.698;9.116;2024-01-30T04:27:46;0.60;99.90
770;DHT22;368;48.698;9.116;2024-01-30T04:30:13;0.50;99.90
770;DHT22;368;48.698;9.116;2024-01-30T04:32:40;0.70;99.90
770;DHT22;368;48.698;9.116;2024-01-30T04:35:07;0.50;99.90
770;DHT22;368;48.698;9.116;2024-01-30T04:37:34;0.30;99.90
770;DHT22;368;48.698;9.116;2024-01-30T04:40:02;0.60;99.90
770;DHT22;368;48.698;9.116;2024-01-30T04:42:30;0.40;99.90
770;DHT22;368;48.698;9.116;2024-01-30T04:44:57;0.30;99.90
770;DHT22;368;48.698;9.116;2024-01-30T04:47:24;0.50;99.90
770;DHT22;368;48.698;9.116;2024-01-30T04:49:51;0.50;99.90
770;DHT22;368;48.698;9.116;2024-01-30T04:52:18;0.90;99.90
770;DHT22;368;48.698;9.116;2024-01-30T04:54:45;0.80;99.90
770;DHT22;368;48.698;9.116;2024-01-30T04:57:13;0.80;99.90
770;DHT22;368;48.698;9.116;2024-01-30T04:59:40;0.80;99.90
770;DHT22;368;48.698;9.116;2024-01-30T05:02:06;0.60;99.90
770;DHT22;368;48.698;9.116;2024-01-30T05:04:33;0.70;99.90
770;DHT22;368;48.698;9.116;2024-01-30T05:07:00;0.40;99.90
770;DHT22;368;48.698;9.116;2024-01-30T05:09:27;0.30;99.90
770;DHT22;368;48.698;9.116;2024-01-30T05:11:54;0.00;99.90
770;DHT22;368;48.698;9.116;2024-01-30T05:14:22;0.20;99.90
770;DHT22;368;48.698;9.116;2024-01-30T05:16:48;0.20;99.90
770;DHT22;368;48.698;9.116;2024-01-30T05:19:15;0.60;99.90
770;DHT22;368;48.698;9.116;2024-01-30T05:21:42;0.60;99.90
770;DHT22;368;48.698;9.116;2024-01-30T05:24:09;0.60;99.90
770;DHT22;368;48.698;9.116;2024-01-30T05:26:36;0.70;99.90
770;DHT22;368;48.698;9.116;2024-01-30T05:29:03;0.80;99.90
770;DHT22;368;48.698;9.116;2024-01-30T05:31:31;0.60;99.90
770;DHT22;368;48.698;9.116;2024-01-30T05:33:58;0.30;99.90
770;DHT22;368;48.698;9.116;2024-01-30T05:36:25;0.20;99.90
770;DHT22;368;48.698;9.116;2024-01-30T05:38:52;0.20;99.90
770;DHT22;368;48.698;9.116;2024-01-30T05:41:19;0.20;99.90
770;DHT22;368;48.698;9.116;2024-01-30T05:43:47;0.00;99.90
770;DHT22;368;48.698;9.116;2024-01-30T05:46:13;0.30;99.90
770;DHT22;368;48.698;9.116;2024-01-30T05:48:41;0.20;99.90
770;DHT22;368;48.698;9.116;2024-01-30T05:51:08;0.00;99.90
770;DHT22;368;48.698;9.116;2024-01-30T05:53:35;0.00;99.90
770;DHT22;368;48.698;9.116;2024-01-30T05:56:02;0.00;99.90
770;DHT22;368;48.698;9.116;2024-01-30T05:58:29;0.00;99.90
770;DHT22;368;48.698;9.116;2024-01-30T06:00:56;0.00;99.90
770;DHT22;368;48.698;9.116;2024-01-30T06:03:23;0.20;99.90
770;DHT22;368;48.698;9.116;2024-01-30T06:05:52;0.40;99.90
770;DHT22;368;48.698;9.116;2024-01-30T06:08:18;0.30;99.90
770;DHT22;368;48.698;9.116;2024-01-30T06:10:45;0.50;99.90
770;DHT22;368;48.698;9.116;2024-01-30T06:13:13;0.20;99.90
770;DHT22;368;48.698;9.116;2024-01-30T06:15:39;0.10;99.90
770;DHT22;368;48.698;9.116;2024-01-30T06:18:06;0.00;99.90
770;DHT22;368;48.698;9.116;2024-01-30T06:20:34;0.10;99.90
770;DHT22;368;48.698;9.116;2024-01-30T06:23:02;0.00;99.90
770;DHT22;368;48.698;9.116;2024-01-30T06:25:29;-0.10;99.90
770;DHT22;368;48.698;9.116;2024-01-30T06:27:56;0.20;99.90
770;DHT22;368;48.698;9.116;2024-01-30T06:30:22;0.30;99.90
770;DHT22;368;48.698;9.116;2024-01-30T06:32:49;0.40;99.90
770;DHT22;368;48.698;9.116;2024-01-30T06:35:16;0.20;99.90
770;DHT22;368;48.698;9.116;2024-01-30T06:37:43;0.50;99.90
770;DHT22;368;48.698;9.116;2024-01-30T06:40:12;0.20;99.90
770;DHT22;368;48.698;9.116;2024-01-30T06:42:38;0.00;99.90
770;DHT22;368;48.698;9.116;2024-01-30T06:45:06;0.10;99.90
770;DHT22;368;48.698;9.116;2024-01-30T06:47:33;-0.20;99.90
770;DHT22;368;48.698;9.116;2024-01-30T06:50:00;-0.20;99.90
770;DHT22;368;48.698;9.116;2024-01-30T06:52:27;-0.10;99.90
770;DHT22;368;48.698;9.116;2024-01-30T06:54:54;-0.20;99.90
770;DHT22;368;48.698;9.116;2024-01-30T06:57:22;-0.10;99.90
770;DHT22;368;48.698;9.116;2024-01-30T06:59:49;-0.20;99.90
770;DHT22;368;48.698;9.116;2024-01-30T07:02:16;0.10;99.90
770;DHT22;368;48.698;9.116;2024-01-30T07:04:42;-0.20;99.90
770;DHT22;368;48.698;9.116;2024-01-30T07:07:09;-0.20;99.90
770;DHT22;368;48.698;9.116;2024-01-30T07:09:38;-0.20;99.90
770;DHT22;368;48.698;9.116;2024-01-30T07:12:05;-0.20;99.90
770;DHT22;368;48.698;9.116;2024-01-30T07:14:34;0.30;99.90
770;DHT22;368;48.698;9.116;2024-01-30T07:17:01;0.30;99.90
770;DHT22;368;48.698;9.116;2024-01-30T07:19:28;0.30;99.90
770;DHT22;368;48.698;9.116;2024-01-30T07:21:54;0.60;99.90
770;DHT22;368;48.698;9.116;2024-01-30T07:24:21;0.90;99.90
770;DHT22;368;48.698;9.116;2024-01-30T07:26:48;0.90;99.90
770;DHT22;368;48.698;9.116;2024-01-30T07:29:15;0.50;99.90
770;DHT22;368;48.698;9.116;2024-01-30T07:31:43;0.60;99.90
770;DHT22;368;48.698;9.116;2024-01-30T07:34:10;0.80;99.90
770;DHT22;368;48.698;9.116;2024-01-30T07:36:37;0.50;99.90
770;DHT22;368;48.698;9.116;2024-01-30T07:39:03;0.90;99.90
770;DHT22;368;48.698;9.116;2024-01-30T07:41:30;0.80;99.90
770;DHT22;368;48.698;9.116;2024-01-30T07:43:57;0.70;99.90
770;DHT22;368;48.698;9.116;2024-01-30T07:46:24;0.90;99.90
770;DHT22;368;48.698;9.116;2024-01-30T07:48:52;1.20;99.90
770;DHT22;368;48.698;9.116;2024-01-30T07:51:18;1.30;99.90
770;DHT22;368;48.698;9.116;2024-01-30T07:53:45;1.40;99.90
770;DHT22;368;48.698;9.116;2024-01-30T07:56:12;1.60;99.90
770;DHT22;368;48.698;9.116;2024-01-30T07:58:39;1.40;99.90
770;DHT22;368;48.698;9.116;2024-01-30T08:01:05;1.80;99.90
770;DHT22;368;48.698;9.116;2024-01-30T08:03:32;1.70;99.90
770;DHT22;368;48.698;9.116;2024-01-30T08:06:01;2.00;99.90
770;DHT22;368;48.698;9.116;2024-01-30T08:08:28;2.30;99.90
770;DHT22;368;48.698;9.116;2024-01-30T08:10:54;2.30;99.90
770;DHT22;368;48.698;9.116;2024-01-30T08:13:21;2.50;99.90
770;DHT22;368;48.698;9.116;2024-01-30T08:15:48;2.80;99.90
770;DHT22;368;48.698;9.116;2024-01-30T08:18:14;2.80;99.90
770;DHT22;368;48.698;9.116;2024-01-30T08:20:41;3.30;99.90
770;DHT22;368;48.698;9.116;2024-01-30T08:23:09;3.30;99.90
770;DHT22;368;48.698;9.116;2024-01-30T08:25:36;3.60;99.90
770;DHT22;368;48.698;9.116;2024-01-30T08:28:04;3.60;99.90
770;DHT22;368;48.698;9.116;2024-01-30T08:30:30;3.90;99.90
770;DHT22;368;48.698;9.116;2024-01-30T08:32:57;4.40;99.90
770;DHT22;368;48.698;9.116;2024-01-30T08:35:24;4.60;99.90
770;DHT22;368;48.698;9.116;2024-01-30T08:37:51;5.00;99.90
770;DHT22;368;48.698;9.116;2024-01-30T08:40:21;5.40;99.90
770;DHT22;368;48.698;9.116;2024-01-30T08:42:47;5.60;99.90
770;DHT22;368;48.698;9.116;2024-01-30T08:45:14;5.60;99.90
770;DHT22;368;48.698;9.116;2024-01-30T08:47:41;5.90;99.90
770;DHT22;368;48.698;9.116;2024-01-30T08:50:08;6.50;99.90
770;DHT22;368;48.698;9.116;2024-01-30T08:52:35;6.40;99.90
770;DHT22;368;48.698;9.116;2024-01-30T08:55:02;6.20;99.90
770;DHT22;368;48.698;9.116;2024-01-30T08:57:31;6.40;99.90
770;DHT22;368;48.698;9.116;2024-01-30T08:59:58;6.80;99.90
770;DHT22;368;48.698;9.116;2024-01-30T09:02:24;6.70;99.90
770;DHT22;368;48.698;9.116;2024-01-30T09:04:51;7.10;99.90
770;DHT22;368;48.698;9.116;2024-01-30T09:07:18;7.10;99.90
770;DHT22;368;48.698;9.116;2024-01-30T09:09:45;7.20;99.90
770;DHT22;368;48.698;9.116;2024-01-30T09:12:11;7.20;99.90
770;DHT22;368;48.698;9.116;2024-01-30T09:14:41;7.40;99.90
770;DHT22;368;48.698;9.116;2024-01-30T09:17:08;7.40;99.90
770;DHT22;368;48.698;9.116;2024-01-30T09:19:34;7.50;99.90
770;DHT22;368;48.698;9.116;2024-01-30T09:22:01;7.60;99.90
770;DHT22;368;48.698;9.116;2024-01-30T09:24:28;7.60;99.90
770;DHT22;368;48.698;9.116;2024-01-30T09:26:55;7.80;99.90
770;DHT22;368;48.698;9.116;2024-01-30T09:29:22;7.80;99.70
770;DHT22;368;48.698;9.116;2024-01-30T09:31:50;8.10;99.40
770;DHT22;368;48.698;9.116;2024-01-30T09:34:16;8.50;99.10
770;DHT22;368;48.698;9.116;2024-01-30T09:36:43;8.70;98.70
770;DHT22;368;48.698;9.116;2024-01-30T09:39:10;8.60;98.20
770;DHT22;368;48.698;9.116;2024-01-30T09:41:49;8.60;97.90
770;DHT22;368;48.698;9.116;2024-01-30T09:44:20;8.80;98.30
770;DHT22;368;48.698;9.116;2024-01-30T09:46:47;8.80;98.00
770;DHT22;368;48.698;9.116;2024-01-30T09:49:16;9.00;97.20
770;DHT22;368;48.698;9.116;2024-01-30T09:51:45;9.30;96.60
770;DHT22;368;48.698;9.116;2024-01-30T09:54:13;9.60;96.20
770;DHT22;368;48.698;9.116;2024-01-30T09:56:40;9.60;95.60
770;DHT22;368;48.698;9.116;2024-01-30T09:59:07;9.90;94.60
770;DHT22;368;48.698;9.116;2024-01-30T10:01:35;10.00;93.80
770;DHT22;368;48.698;9.116;2024-01-30T10:04:03;10.00;92.90
770;DHT22;368;48.698;9.116;2024-01-30T10:06:32;10.10;92.80
770;DHT22;368;48.698;9.116;2024-01-30T10:08:58;10.20;92.30
770;DHT22;368;48.698;9.116;2024-01-30T10:11:25;10.20;91.80
770;DHT22;368;48.698;9.116;2024-01-30T10:13:52;10.40;91.90
770;DHT22;368;48.698;9.116;2024-01-30T10:16:19;10.50;91.60
770;DHT22;368;48.698;9.116;2024-01-30T10:18:46;10.70;91.50
770;DHT22;368;48.698;9.116;2024-01-30T10:21:13;11.00;90.80
770;DHT22;368;48.698;9.116;2024-01-30T10:23:43;10.80;90.80
770;DHT22;368;48.698;9.116;2024-01-30T10:26:09;11.20;90.80
770;DHT22;368;48.698;9.116;2024-01-30T10:28:36;11.10;90.70
770;DHT22;368;48.698;9.116;2024-01-30T10:31:03;11.20;90.90
770;DHT22;368;48.698;9.116;2024-01-30T10:33:30;11.40;90.00
770;DHT22;368;48.698;9.116;2024-01-30T10:36:00;11.20;89.60
770;DHT22;368;48.698;9.116;2024-01-30T10:38:29;11.30;89.10
770;DHT22;368;48.698;9.116;2024-01-30T10:40:58;11.60;89.50
770;DHT22;368;48.698;9.116;2024-01-30T10:43:30;11.50;89.20
770;DHT22;368;48.698;9.116;2024-01-30T10:45:57;11.60;87.50
770;DHT22;368;48.698;9.116;2024-01-30T10:48:32;11.70;88.20
770;DHT22;368;48.698;9.116;2024-01-30T10:51:05;11.80;87.90
770;DHT22;368;48.698;9.116;2024-01-30T10:53:32;12.00;87.00
770;DHT22;368;48.698;9.116;2024-01-30T10:56:01;12.20;87.60
770;DHT22;368;48.698;9.116;2024-01-30T10:58:29;12.10;85.60
770;DHT22;368;48.698;9.116;2024-01-30T11:00:56;12.30;85.10
770;DHT22;368;48.698;9.116;2024-01-30T11:03:23;12.30;85.00
770;DHT22;368;48.698;9.116;2024-01-30T11:05:51;12.30;85.40
770;DHT22;368;48.698;9.116;2024-01-30T11:08:24;12.50;84.90
770;DHT22;368;48.698;9.116;2024-01-30T11:10:55;12.40;84.20
770;DHT22;368;48.698;9.116;2024-01-30T11:13:26;12.80;83.70
770;DHT22;368;48.698;9.116;2024-01-30T11:15:53;12.60;83.90
770;DHT22;368;48.698;9.116;2024-01-30T11:18:24;12.40;83.20
770;DHT22;368;48.698;9.116;2024-01-30T11:20:50;12.50;83.70
770;DHT22;368;48.698;9.116;2024-01-30T11:23:17;12.70;83.10
770;DHT22;368;48.698;9.116;2024-01-30T11:25:44;12.60;83.00
770;DHT22;368;48.698;9.116;2024-01-30T11:28:13;12.60;82.70
770;DHT22;368;48.698;9.116;2024-01-30T11:30:42;12.90;82.10
770;DHT22;368;48.698;9.116;2024-01-30T11:33:10;12.80;81.90
770;DHT22;368;48.698;9.116;2024-01-30T11:35:38;13.00;82.30
770;DHT22;368;48.698;9.116;2024-01-30T11:38:06;12.60;82.90
770;DHT22;368;48.698;9.116;2024-01-30T11:40:34;12.90;82.60
770;DHT22;368;48.698;9.116;2024-01-30T11:43:02;13.00;82.40
770;DHT22;368;48.698;9.116;2024-01-30T11:45:30;12.70;82.50
770;DHT22;368;48.698;9.116;2024-01-30T11:47:58;13.00;82.50
770;DHT22;368;48.698;9.116;2024-01-30T11:50:27;13.00;82.40
770;DHT22;368;48.698;9.116;2024-01-30T11:52:54;13.10;81.70
770;DHT22;368;48.698;9.116;2024-01-30T11:55:23;13.00;82.20
770;DHT22;368;48.698;9.116;2024-01-30T11:57:50;13.10;82.20
770;DHT22;368;48.698;9.116;2024-01-30T12:00:18;13.50;82.20
770;DHT22;368;48.698;9.116;2024-01-30T12:02:49;12.90;81.60
770;DHT22;368;48.698;9.116;2024-01-30T12:05:24;12.80;82.20
770;DHT22;368;48.698;9.116;2024-01-30T12:07:51;12.90;82.80
770;DHT22;368;48.698;9.116;2024-01-30T12:10:18;13.10;82.50
770;DHT22;368;48.698;9.116;2024-01-30T12:12:47;13.20;82.10
770;DHT22;368;48.698;9.116;2024-01-30T12:15:15;13.40;81.20
770;DHT22;368;48.698;9.116;2024-01-30T12:17:42;13.60;80.80
770;DHT22;368;48.698;9.116;2024-01-30T12:20:11;13.90;79.70
770;DHT22;368;48.698;9.116;2024-01-30T12:22:40;13.70;80.60
770;DHT22;368;48.698;9.116;2024-01-30T12:25:08;13.80;80.40
770;DHT22;368;48.698;9.116;2024-01-30T12:27:35;14.10;80.20
770;DHT22;368;48.698;9.116;2024-01-30T12:30:05;13.80;79.00
770;DHT22;368;48.698;9.116;2024-01-30T12:32:34;14.20;79.70
770;DHT22;368;48.698;9.116;2024-01-30T12:35:01;13.90;79.10
770;DHT22;368;48.698;9.116;2024-01-30T12:37:28;14.10;78.90
770;DHT22;368;48.698;9.116;2024-01-30T12:39:56;14.30;78.80
770;DHT22;368;48.698;9.116;2024-01-30T12:42:23;14.90;77.20
770;DHT22;368;48.698;9.116;2024-01-30T12:44:50;15.80;75.50
770;DHT22;368;48.698;9.116;2024-01-30T12:47:17;16.00;73.80
770;DHT22;368;48.698;9.116;2024-01-30T12:49:43;16.10;73.30
770;DHT22;368;48.698;9.116;2024-01-30T12:52:10;16.00;73.00
770;DHT22;368;48.698;9.116;2024-01-30T12:54:37;16.40;72.50
770;DHT22;368;48.698;9.116;2024-01-30T12:57:06;16.40;71.10
770;DHT22;368;48.698;9.116;2024-01-30T12:59:32;16.40;72.00
770;DHT22;368;48.698;9.116;2024-01-30T13:02:00;16.30;72.20
770;DHT22;368;48.698;9.116;2024-01-30T13:04:28;16.50;71.60
770;DHT22;368;48.698;9.116;2024-01-30T13:06:55;17.00;70.10
770;DHT22;368;48.698;9.116;2024-01-30T13:09:23;17.90;67.40
770;DHT22;368;48.698;9.116;2024-01-30T13:11:49;18.80;65.20
770;DHT22;368;48.698;9.116;2024-01-30T13:14:18;19.00;63.20
770;DHT22;368;48.698;9.116;2024-01-30T13:16:45;18.10;63.40
770;DHT22;368;48.698;9.116;2024-01-30T13:19:12;18.20;64.60
770;DHT22;368;48.698;9.116;2024-01-30T13:21:39;18.20;63.50
770;DHT22;368;48.698;9.116;2024-01-30T13:24:06;18.00;63.70
770;DHT22;368;48.698;9.116;2024-01-30T13:26:33;18.10;63.80
770;DHT22;368;48.698;9.116;2024-01-30T13:29:00;18.30;63.70
770;DHT22;368;48.698;9.116;2024-01-30T13:31:28;18.50;62.00
770;DHT22;368;48.698;9.116;2024-01-30T13:33:55;18.80;61.70
770;DHT22;368;48.698;9.116;2024-01-30T13:36:22;18.10;61.70
770;DHT22;368;48.698;9.116;2024-01-30T13:38:49;17.30;63.20
770;DHT22;368;48.698;9.116;2024-01-30T13:41:16;17.10;64.40
770;DHT22;368;48.698;9.116;2024-01-30T13:43:43;16.70;64.80
770;DHT22;368;48.698;9.116;2024-01-30T13:46:10;16.90;65.10
770;DHT22;368;48.698;9.116;2024-01-30T13:48:38;16.70;64.10
770;DHT22;368;48.698;9.116;2024-01-30T13:51:05;18.30;62.90
770;DHT22;368;48.698;9.116;2024-01-30T13:53:32;17.70;61.40
770;DHT22;368;48.698;9.116;2024-01-30T13:55:59;16.50;63.50
770;DHT22;368;48.698;9.116;2024-01-30T13:58:26;15.70;66.70
770;DHT22;368;48.698;9.116;2024-01-30T14:00:53;15.50;68.00
770;DHT22;368;48.698;9.116;2024-01-30T14:03:20;15.30;68.90
770;DHT22;368;48.698;9.116;2024-01-30T14:05:48;15.10;69.50
770;DHT22;368;48.698;9.116;2024-01-30T14:08:15;15.20;69.80
770;DHT22;368;48.698;9.116;2024-01-30T14:10:42;14.90;70.10
770;DHT22;368;48.698;9.116;2024-01-30T14:13:09;14.90;70.30
770;DHT22;368;48.698;9.116;2024-01-30T14:15:37;14.80;69.60
770;DHT22;368;48.698;9.116;2024-01-30T14:18:04;14.80;69.00
770;DHT22;368;48.698;9.116;2024-01-30T14:20:33;15.10;69.60
770;DHT22;368;48.698;9.116;2024-01-30T14:23:01;14.90;70.00
770;DHT22;368;48.698;9.116;2024-01-30T14:25:28;14.70;69.90
770;DHT22;368;48.698;9.116;2024-01-30T14:27:55;14.70;70.30
770;DHT22;368;48.698;9.116;2024-01-30T14:30:22;14.60;71.40
770;DHT22;368;48.698;9.116;2024-01-30T14:32:49;14.60;71.90
770;DHT22;368;48.698;9.116;2024-01-30T14:35:16;14.30;71.70
770;DHT22;368;48.698;9.116;2024-01-30T14:37:43;14.50;71.90
770;DHT22;368;48.698;9.116;2024-01-30T14:40:11;14.60;72.70
770;DHT22;368;48.698;9.116;2024-01-30T14:42:38;14.20;72.30
770;DHT22;368;48.698;9.116;2024-01-30T14:45:06;14.10;73.00
770;DHT22;368;48.698;9.116;2024-01-30T14:47:33;13.90;73.90
770;DHT22;368;48.698;9.116;2024-01-30T14:50:00;13.40;74.00
770;DHT22;368;48.698;9.116;2024-01-30T14:52:28;13.50;75.00
770;DHT22;368;48.698;9.116;2024-01-30T14:54:54;13.10;75.40
770;DHT22;368;48.698;9.116;2024-01-30T14:57:23;12.80;76.20
770;DHT22;368;48.698;9.116;2024-01-30T14:59:50;12.90;76.30
770;DHT22;368;48.698;9.116;2024-01-30T15:02:17;13.00;77.10
770;DHT22;368;48.698;9.116;2024-01-30T15:04:43;12.60;77.50
770;DHT22;368;48.698;9.116;2024-01-30T15:07:10;12.50;78.40
770;DHT22;368;48.698;9.116;2024-01-30T15:09:37;12.40;79.00
770;DHT22;368;48.698;9.116;2024-01-30T15:12:04;12.40;79.90
770;DHT22;368;48.698;9.116;2024-01-30T15:14:32;12.30;80.70
770;DHT22;368;48.698;9.116;2024-01-30T15:16:59;12.10;81.40
770;DHT22;368;48.698;9.116;2024-01-30T15:19:26;12.10;81.60
770;DHT22;368;48.698;9.116;2024-01-30T15:21:53;12.20;82.10
770;DHT22;368;48.698;9.116;2024-01-30T15:24:20;11.70;82.50
770;DHT22;368;48.698;9.116;2024-01-30T15:26:49;11.70;83.20
770;DHT22;368;48.698;9.116;2024-01-30T15:29:16;11.90;83.60
770;DHT22;368;48.698;9.116;2024-01-30T15:31:45;11.50;83.40
770;DHT22;368;48.698;9.116;2024-01-30T15:34:11;11.50;85.30
770;DHT22;368;48.698;9.116;2024-01-30T15:36:38;11.40;86.50
770;DHT22;368;48.698;9.116;2024-01-30T15:39:05;11.10;86.80
770;DHT22;368;48.698;9.116;2024-01-30T15:41:33;10.90;88.60
770;DHT22;368;48.698;9.116;2024-01-30T15:43:59;10.90;89.70
770;DHT22;368;48.698;9.116;2024-01-30T15:46:27;10.40;90.40
770;DHT22;368;48.698;9.116;2024-01-30T15:48:56;10.20;90.70
770;DHT22;368;48.698;9.116;2024-01-30T15:51:22;10.20;91.00
770;DHT22;368;48.698;9.116;2024-01-30T15:53:50;10.00;91.20
770;DHT22;368;48.698;9.116;2024-01-30T15:56:17;10.10;92.00
770;DHT22;368;48.698;9.116;2024-01-30T15:58:43;10.00;91.80
770;DHT22;368;48.698;9.116;2024-01-30T16:01:14;10.00;92.40
770;DHT22;368;48.698;9.116;2024-01-30T16:03:41;9.90;93.40
770;DHT22;368;48.698;9.116;2024-01-30T16:06:11;10.00;93.90
770;DHT22;368;48.698;9.116;2024-01-30T16:08:38;9.50;95.60
770;DHT22;368;48.698;9.116;2024-01-30T16:11:06;9.40;96.60
770;DHT22;368;48.698;9.116;2024-01-30T16:13:34;9.30;97.60
770;DHT22;368;48.698;9.116;2024-01-30T16:16:03;9.30;98.30
770;DHT22;368;48.698;9.116;2024-01-30T16:18:30;9.00;98.60
770;DHT22;368;48.698;9.116;2024-01-30T16:20:57;8.80;99.40
770;DHT22;368;48.698;9.116;2024-01-30T16:23:25;9.10;99.60
770;DHT22;368;48.698;9.116;2024-01-30T16:25:53;8.60;99.90
770;DHT22;368;48.698;9.116;2024-01-30T16:28:19;8.50;99.90
770;DHT22;368;48.698;9.116;2024-01-30T16:30:47;8.30;99.90
770;DHT22;368;48.698;9.116;2024-01-30T16:33:14;8.30;99.90
770;DHT22;368;48.698;9.116;2024-01-30T16:35:43;8.40;99.90
770;DHT22;368;48.698;9.116;2024-01-30T16:38:10;8.40;99.90
770;DHT22;368;48.698;9.116;2024-01-30T16:40:38;8.10;99.90
770;DHT22;368;48.698;9.116;2024-01-30T16:43:05;8.40;99.90